sensor_id;sensor_type;location;lat;lon;timestamp;noise_LAeq;noise_LA_min;noise_LA_max;noise_LA01;noise_LA95
74234;Laerm;62591;55.764;37.718;2023-05-19T00:00:12;43.80;37.21;56.88;;
74234;Laerm;62591;55.764;37.718;2023-05-19T00:02:42;42.72;35.98;54.46;;
74234;Laerm;62591;55.764;37.718;2023-05-19T00:05:12;41.65;36.00;53.34;;
74234;Laerm;62591;55.764;37.718;2023-05-19T00:07:46;44.79;37.38;56.00;;
74234;Laerm;62591;55.764;37.718;2023-05-19T00:10:18;43.51;36.94;55.41;;
74234;Laerm;62591;55.764;37.718;2023-05-19T00:12:47;44.39;34.93;60.86;;
74234;Laerm;62591;55.764;37.718;2023-05-19T00:15:20;38.30;34.16;43.92;;
74234;Laerm;62591;55.764;37.718;2023-05-19T00:17:48;42.59;36.70;52.96;;
74234;Laerm;62591;55.764;37.718;2023-05-19T00:20:18;42.42;36.42;55.93;;
74234;Laerm;62591;55.764;37.718;2023-05-19T00:22:48;46.32;35.88;58.23;;
74234;Laerm;62591;55.764;37.718;2023-05-19T00:25:17;42.93;35.75;52.21;;
74234;Laerm;62591;55.764;37.718;2023-05-19T00:27:47;43.06;36.04;50.98;;
74234;Laerm;62591;55.764;37.718;2023-05-19T00:30:20;42.98;36.28;52.54;;
74234;Laerm;62591;55.764;37.718;2023-05-19T00:32:50;42.68;35.88;52.70;;
74234;Laerm;62591;55.764;37.718;2023-05-19T00:35:19;41.02;35.52;49.49;;
74234;Laerm;62591;55.764;37.718;2023-05-19T00:37:49;39.61;34.16;47.24;;
74234;Laerm;62591;55.764;37.718;2023-05-19T00:40:18;41.13;35.20;48.05;;
74234;Laerm;62591;55.764;37.718;2023-05-19T00:42:47;46.87;37.48;61.92;;
74234;Laerm;62591;55.764;37.718;2023-05-19T00:45:15;43.93;38.36;52.70;;
74234;Laerm;62591;55.764;37.718;2023-05-19T00:47:44;42.06;34.59;60.06;;
74234;Laerm;62591;55.764;37.718;2023-05-19T00:50:13;51.16;35.44;68.91;;
74234;Laerm;62591;55.764;37.718;2023-05-19T00:52:41;40.50;35.63;49.61;;
74234;Laerm;62591;55.764;37.718;2023-05-19T00:55:11;46.63;35.57;78.97;;
74234;Laerm;62591;55.764;37.718;2023-05-19T00:57:41;43.81;36.68;54.14;;
74234;Laerm;62591;55.764;37.718;2023-05-19T01:00:11;41.34;36.94;51.17;;
74234;Laerm;62591;55.764;37.718;2023-05-19T01:02:40;43.12;35.67;53.69;;
74234;Laerm;62591;55.764;37.718;2023-05-19T01:05:10;45.26;35.91;63.57;;
74234;Laerm;62591;55.764;37.718;2023-05-19T01:07:40;46.57;38.42;62.75;;
74234;Laerm;62591;55.764;37.718;2023-05-19T01:10:09;45.80;38.03;59.41;;
74234;Laerm;62591;55.764;37.718;2023-05-19T01:12:39;44.23;36.58;64.87;;
74234;Laerm;62591;55.764;37.718;2023-05-19T01:15:09;40.18;35.71;51.87;;
74234;Laerm;62591;55.764;37.718;2023-05-19T01:17:45;43.45;37.05;57.72;;
74234;Laerm;62591;55.764;37.718;2023-05-19T01:20:20;45.45;38.67;54.97;;
74234;Laerm;62591;55.764;37.718;2023-05-19T01:23:11;42.45;35.11;58.56;;
74234;Laerm;62591;55.764;37.718;2023-05-19T01:26:02;39.36;34.77;48.04;;
74234;Laerm;62591;55.764;37.718;2023-05-19T01:29:07;42.65;34.43;50.41;;
74234;Laerm;62591;55.764;37.718;2023-05-19T01:31:47;42.16;34.77;64.27;;
74234;Laerm;62591;55.764;37.718;2023-05-19T01:34:17;41.12;36.18;50.16;;
74234;Laerm;62591;55.764;37.718;2023-05-19T01:36:47;42.71;36.71;49.67;;
74234;Laerm;62591;55.764;37.718;2023-05-19T01:39:17;46.01;35.89;57.39;;
74234;Laerm;62591;55.764;37.718;2023-05-19T01:41:47;50.22;42.71;70.03;;
74234;Laerm;62591;55.764;37.718;2023-05-19T01:44:16;48.06;38.26;58.74;;
74234;Laerm;62591;55.764;37.718;2023-05-19T01:46:47;45.01;38.82;53.16;;
74234;Laerm;62591;55.764;37.718;2023-05-19T01:49:17;45.64;38.13;59.29;;
74234;Laerm;62591;55.764;37.718;2023-05-19T01:51:45;47.66;41.09;56.82;;
74234;Laerm;62591;55.764;37.718;2023-05-19T01:54:14;45.74;40.13;54.65;;
74234;Laerm;62591;55.764;37.718;2023-05-19T01:56:56;45.84;38.86;53.37;;
74234;Laerm;62591;55.764;37.718;2023-05-19T01:59:38;46.77;39.51;63.87;;
74234;Laerm;62591;55.764;37.718;2023-05-19T02:02:19;47.66;40.77;62.00;;
74234;Laerm;62591;55.764;37.718;2023-05-19T02:04:58;48.13;37.82;66.88;;
74234;Laerm;62591;55.764;37.718;2023-05-19T02:07:36;49.06;42.52;57.59;;
74234;Laerm;62591;55.764;37.718;2023-05-19T02:10:10;44.08;37.91;55.84;;
74234;Laerm;62591;55.764;37.718;2023-05-19T02:12:43;47.57;38.77;62.77;;
74234;Laerm;62591;55.764;37.718;2023-05-19T02:15:16;47.78;40.10;66.24;;
74234;Laerm;62591;55.764;37.718;2023-05-19T02:17:47;44.51;38.52;56.35;;
74234;Laerm;62591;55.764;37.718;2023-05-19T02:20:40;51.26;41.43;69.13;;
74234;Laerm;62591;55.764;37.718;2023-05-19T02:23:08;55.55;42.34;75.74;;
74234;Laerm;62591;55.764;37.718;2023-05-19T02:25:37;48.50;41.36;65.87;;
74234;Laerm;62591;55.764;37.718;2023-05-19T02:28:06;49.18;42.63;65.96;;
74234;Laerm;62591;55.764;37.718;2023-05-19T02:30:34;51.76;41.44;72.64;;
74234;Laerm;62591;55.764;37.718;2023-05-19T02:33:04;45.70;40.25;67.97;;
74234;Laerm;62591;55.764;37.718;2023-05-19T02:35:34;48.16;40.45;56.49;;
74234;Laerm;62591;55.764;37.718;2023-05-19T02:38:03;44.27;40.19;52.84;;
74234;Laerm;62591;55.764;37.718;2023-05-19T02:40:32;44.66;39.62;52.09;;
74234;Laerm;62591;55.764;37.718;2023-05-19T02:43:00;48.30;40.42;58.57;;
74234;Laerm;62591;55.764;37.718;2023-05-19T02:45:29;46.97;39.68;62.87;;
74234;Laerm;62591;55.764;37.718;2023-05-19T02:48:02;45.42;39.41;54.06;;
74234;Laerm;62591;55.764;37.718;2023-05-19T02:50:32;45.77;41.00;58.23;;
74234;Laerm;62591;55.764;37.718;2023-05-19T02:53:03;46.71;40.34;52.64;;
74234;Laerm;62591;55.764;37.718;2023-05-19T02:55:31;45.72;39.46;59.24;;
74234;Laerm;62591;55.764;37.718;2023-05-19T02:58:00;43.25;38.62;52.25;;
74234;Laerm;62591;55.764;37.718;2023-05-19T03:00:29;47.45;39.31;61.03;;
74234;Laerm;62591;55.764;37.718;2023-05-19T03:02:58;43.88;38.52;61.85;;
74234;Laerm;62591;55.764;37.718;2023-05-19T03:05:31;45.61;38.48;53.64;;
74234;Laerm;62591;55.764;37.718;2023-05-19T03:08:00;45.53;39.10;55.67;;
74234;Laerm;62591;55.764;37.718;2023-05-19T03:10:28;47.02;39.37;62.77;;
74234;Laerm;62591;55.764;37.718;2023-05-19T03:12:58;46.41;38.85;53.69;;
74234;Laerm;62591;55.764;37.718;2023-05-19T03:15:26;46.28;39.60;54.72;;
74234;Laerm;62591;55.764;37.718;2023-05-19T03:17:55;48.63;41.08;63.83;;
74234;Laerm;62591;55.764;37.718;2023-05-19T03:20:24;48.64;40.99;66.38;;
74234;Laerm;62591;55.764;37.718;2023-05-19T03:22:54;47.60;40.71;54.83;;
74234;Laerm;62591;55.764;37.718;2023-05-19T03:25:23;50.38;41.27;64.47;;
74234;Laerm;62591;55.764;37.718;2023-05-19T03:27:52;49.86;41.27;66.87;;
74234;Laerm;62591;55.764;37.718;2023-05-19T03:30:21;50.01;42.29;58.99;;
74234;Laerm;62591;55.764;37.718;2023-05-19T03:33:16;48.91;42.15;64.83;;
74234;Laerm;62591;55.764;37.718;2023-05-19T03:35:45;50.37;43.51;63.29;;
74234;Laerm;62591;55.764;37.718;2023-05-19T03:38:16;46.80;39.92;53.49;;
74234;Laerm;62591;55.764;37.718;2023-05-19T03:40:56;49.48;40.78;71.51;;
74234;Laerm;62591;55.764;37.718;2023-05-19T03:43:24;48.12;41.45;53.74;;
74234;Laerm;62591;55.764;37.718;2023-05-19T03:45:57;49.89;42.85;62.25;;
74234;Laerm;62591;55.764;37.718;2023-05-19T03:48:46;49.15;41.55;57.36;;
74234;Laerm;62591;55.764;37.718;2023-05-19T03:51:34;48.09;42.31;53.08;;
74234;Laerm;62591;55.764;37.718;2023-05-19T03:54:17;48.00;41.74;60.21;;
74234;Laerm;62591;55.764;37.718;2023-05-19T03:56:50;49.20;42.77;55.87;;
74234;Laerm;62591;55.764;37.718;2023-05-19T03:59:19;49.51;41.90;59.49;;
74234;Laerm;62591;55.764;37.718;2023-05-19T04:01:50;48.67;43.15;56.89;;
74234;Laerm;62591;55.764;37.718;2023-05-19T04:04:19;46.63;41.59;52.89;;
74234;Laerm;62591;55.764;37.718;2023-05-19T04:06:48;50.01;43.16;60.65;;
74234;Laerm;62591;55.764;37.718;2023-05-19T04:09:19;48.23;42.07;65.11;;
74234;Laerm;62591;55.764;37.718;2023-05-19T04:11:47;49.12;43.62;55.61;;
74234;Laerm;62591;55.764;37.718;2023-05-19T04:14:18;47.17;40.95;58.31;;
74234;Laerm;62591;55.764;37.718;2023-05-19T04:16:47;50.76;43.28;60.19;;
74234;Laerm;62591;55.764;37.718;2023-05-19T04:19:15;48.53;40.67;64.70;;
74234;Laerm;62591;55.764;37.718;2023-05-19T04:21:45;48.61;41.94;57.57;;
74234;Laerm;62591;55.764;37.718;2023-05-19T04:24:13;51.03;43.11;68.27;;
74234;Laerm;62591;55.764;37.718;2023-05-19T04:26:43;47.74;41.77;62.04;;
74234;Laerm;62591;55.764;37.718;2023-05-19T04:29:15;49.42;43.79;70.98;;
74234;Laerm;62591;55.764;37.718;2023-05-19T04:31:44;48.50;43.11;60.77;;
74234;Laerm;62591;55.764;37.718;2023-05-19T04:34:13;50.17;42.69;67.07;;
74234;Laerm;62591;55.764;37.718;2023-05-19T04:36:42;48.45;42.63;54.61;;
74234;Laerm;62591;55.764;37.718;2023-05-19T04:39:10;50.19;42.10;55.39;;
74234;Laerm;62591;55.764;37.718;2023-05-19T04:41:44;49.21;43.04;56.32;;
74234;Laerm;62591;55.764;37.718;2023-05-19T04:44:13;47.83;40.31;58.07;;
74234;Laerm;62591;55.764;37.718;2023-05-19T04:46:47;49.62;40.56;66.68;;
74234;Laerm;62591;55.764;37.718;2023-05-19T04:49:17;48.30;40.11;64.13;;
74234;Laerm;62591;55.764;37.718;2023-05-19T04:51:46;50.08;42.28;70.19;;
74234;Laerm;62591;55.764;37.718;2023-05-19T04:54:21;47.77;41.98;56.35;;
74234;Laerm;62591;55.764;37.718;2023-05-19T04:56:51;49.61;42.60;57.07;;
74234;Laerm;62591;55.764;37.718;2023-05-19T04:59:24;49.22;42.26;68.95;;
74234;Laerm;62591;55.764;37.718;2023-05-19T05:01:53;47.68;41.99;65.82;;
74234;Laerm;62591;55.764;37.718;2023-05-19T05:04:24;50.04;44.36;60.75;;
74234;Laerm;62591;55.764;37.718;2023-05-19T05:06:52;49.71;44.97;60.81;;
74234;Laerm;62591;55.764;37.718;2023-05-19T05:09:23;50.90;43.76;59.74;;
74234;Laerm;62591;55.764;37.718;2023-05-19T05:11:54;50.21;44.83;66.11;;
74234;Laerm;62591;55.764;37.718;2023-05-19T05:14:24;49.99;43.30;59.09;;
74234;Laerm;62591;55.764;37.718;2023-05-19T05:16:53;49.36;43.18;58.66;;
74234;Laerm;62591;55.764;37.718;2023-05-19T05:19:24;51.75;43.18;68.20;;
74234;Laerm;62591;55.764;37.718;2023-05-19T05:21:54;50.06;43.23;59.66;;
74234;Laerm;62591;55.764;37.718;2023-05-19T05:24:23;50.68;44.56;57.37;;
74234;Laerm;62591;55.764;37.718;2023-05-19T05:26:58;50.91;44.52;59.71;;
74234;Laerm;62591;55.764;37.718;2023-05-19T05:29:29;50.67;46.02;59.71;;
74234;Laerm;62591;55.764;37.718;2023-05-19T05:31:58;49.72;45.43;61.21;;
74234;Laerm;62591;55.764;37.718;2023-05-19T05:34:27;48.50;42.73;57.20;;
74234;Laerm;62591;55.764;37.718;2023-05-19T05:36:55;50.82;43.20;60.92;;
74234;Laerm;62591;55.764;37.718;2023-05-19T05:39:24;51.56;44.31;68.17;;
74234;Laerm;62591;55.764;37.718;2023-05-19T05:41:54;50.34;43.72;61.64;;
74234;Laerm;62591;55.764;37.718;2023-05-19T05:44:24;49.64;43.29;62.81;;
74234;Laerm;62591;55.764;37.718;2023-05-19T05:46:54;51.09;45.58;65.14;;
74234;Laerm;62591;55.764;37.718;2023-05-19T05:49:24;48.98;45.00;57.19;;
74234;Laerm;62591;55.764;37.718;2023-05-19T05:51:54;50.36;45.17;57.61;;
74234;Laerm;62591;55.764;37.718;2023-05-19T05:54:37;49.95;44.04;60.74;;
74234;Laerm;62591;55.764;37.718;2023-05-19T05:57:08;51.00;44.98;56.80;;
74234;Laerm;62591;55.764;37.718;2023-05-19T05:59:39;50.18;44.09;61.29;;
74234;Laerm;62591;55.764;37.718;2023-05-19T06:02:08;49.00;43.32;60.88;;
74234;Laerm;62591;55.764;37.718;2023-05-19T06:04:38;51.61;45.28;62.41;;
74234;Laerm;62591;55.764;37.718;2023-05-19T06:07:08;50.64;45.32;57.23;;
74234;Laerm;62591;55.764;37.718;2023-05-19T06:09:37;51.69;45.33;59.43;;
74234;Laerm;62591;55.764;37.718;2023-05-19T06:12:08;48.89;43.42;58.09;;
74234;Laerm;62591;55.764;37.718;2023-05-19T06:14:44;49.85;43.66;58.45;;
74234;Laerm;62591;55.764;37.718;2023-05-19T06:17:25;48.71;42.01;54.68;;
74234;Laerm;62591;55.764;37.718;2023-05-19T06:19:53;49.52;42.74;61.24;;
74234;Laerm;62591;55.764;37.718;2023-05-19T06:22:23;50.98;44.66;58.75;;
74234;Laerm;62591;55.764;37.718;2023-05-19T06:24:54;49.67;43.98;58.83;;
74234;Laerm;62591;55.764;37.718;2023-05-19T06:27:23;50.04;44.11;56.09;;
74234;Laerm;62591;55.764;37.718;2023-05-19T06:29:53;49.32;42.08;62.23;;
74234;Laerm;62591;55.764;37.718;2023-05-19T06:32:22;49.15;44.35;55.74;;
74234;Laerm;62591;55.764;37.718;2023-05-19T06:34:51;50.05;43.95;62.01;;
74234;Laerm;62591;55.764;37.718;2023-05-19T06:37:21;49.96;43.12;66.67;;
74234;Laerm;62591;55.764;37.718;2023-05-19T06:39:51;49.46;43.43;55.30;;
74234;Laerm;62591;55.764;37.718;2023-05-19T06:42:21;49.52;42.43;63.60;;
74234;Laerm;62591;55.764;37.718;2023-05-19T06:45:18;48.08;41.79;53.92;;
74234;Laerm;62591;55.764;37.718;2023-05-19T06:47:50;50.35;46.34;55.09;;
74234;Laerm;62591;55.764;37.718;2023-05-19T06:50:20;49.12;42.10;55.32;;
74234;Laerm;62591;55.764;37.718;2023-05-19T06:52:49;49.07;42.08;57.96;;
74234;Laerm;62591;55.764;37.718;2023-05-19T06:55:17;49.76;43.29;58.34;;
74234;Laerm;62591;55.764;37.718;2023-05-19T06:57:48;51.25;44.40;58.79;;
74234;Laerm;62591;55.764;37.718;2023-05-19T07:00:20;51.22;43.29;66.95;;
74234;Laerm;62591;55.764;37.718;2023-05-19T07:02:51;50.09;44.24;58.05;;
74234;Laerm;62591;55.764;37.718;2023-05-19T07:05:20;50.55;45.63;57.52;;
74234;Laerm;62591;55.764;37.718;2023-05-19T07:07:53;50.08;43.41;59.58;;
74234;Laerm;62591;55.764;37.718;2023-05-19T07:10:25;50.04;44.81;63.58;;
74234;Laerm;62591;55.764;37.718;2023-05-19T07:12:55;48.25;43.10;55.49;;
74234;Laerm;62591;55.764;37.718;2023-05-19T07:15:29;52.87;45.22;76.12;;
74234;Laerm;62591;55.764;37.718;2023-05-19T07:17:58;65.45;46.80;79.86;;
74234;Laerm;62591;55.764;37.718;2023-05-19T07:20:27;50.48;43.25;59.63;;
74234;Laerm;62591;55.764;37.718;2023-05-19T07:22:57;51.13;44.85;65.40;;
74234;Laerm;62591;55.764;37.718;2023-05-19T07:25:25;50.95;44.75;59.90;;
74234;Laerm;62591;55.764;37.718;2023-05-19T07:27:56;51.96;45.04;68.39;;
74234;Laerm;62591;55.764;37.718;2023-05-19T07:30:26;49.50;43.32;58.21;;
74234;Laerm;62591;55.764;37.718;2023-05-19T07:32:56;50.26;45.06;57.73;;
74234;Laerm;62591;55.764;37.718;2023-05-19T07:35:25;49.70;44.22;63.83;;
74234;Laerm;62591;55.764;37.718;2023-05-19T07:37:54;49.96;42.67;62.98;;
74234;Laerm;62591;55.764;37.718;2023-05-19T07:40:22;48.95;43.78;63.04;;
74234;Laerm;62591;55.764;37.718;2023-05-19T07:42:51;48.74;43.78;61.87;;
74234;Laerm;62591;55.764;37.718;2023-05-19T07:45:20;50.40;45.25;59.32;;
74234;Laerm;62591;55.764;37.718;2023-05-19T07:47:48;50.97;43.58;62.50;;
74234;Laerm;62591;55.764;37.718;2023-05-19T07:50:18;50.02;43.67;63.14;;
74234;Laerm;62591;55.764;37.718;2023-05-19T07:52:47;51.08;45.13;64.46;;
74234;Laerm;62591;55.764;37.718;2023-05-19T07:55:15;51.17;45.90;62.02;;
74234;Laerm;62591;55.764;37.718;2023-05-19T07:57:45;49.75;43.74;55.93;;
74234;Laerm;62591;55.764;37.718;2023-05-19T08:00:14;51.25;45.79;65.24;;
74234;Laerm;62591;55.764;37.718;2023-05-19T08:02:43;51.19;44.55;63.35;;
74234;Laerm;62591;55.764;37.718;2023-05-19T08:05:12;50.47;44.59;63.61;;
74234;Laerm;62591;55.764;37.718;2023-05-19T08:07:42;52.74;46.71;62.60;;
74234;Laerm;62591;55.764;37.718;2023-05-19T08:10:11;52.04;46.85;61.17;;
74234;Laerm;62591;55.764;37.718;2023-05-19T08:12:39;50.88;44.82;61.89;;
74234;Laerm;62591;55.764;37.718;2023-05-19T08:15:08;49.91;44.80;58.94;;
74234;Laerm;62591;55.764;37.718;2023-05-19T08:17:37;49.62;42.46;60.67;;
74234;Laerm;62591;55.764;37.718;2023-05-19T08:20:07;51.17;44.68;71.68;;
74234;Laerm;62591;55.764;37.718;2023-05-19T08:22:37;52.12;46.28;61.18;;
74234;Laerm;62591;55.764;37.718;2023-05-19T08:25:08;51.69;46.17;62.79;;
74234;Laerm;62591;55.764;37.718;2023-05-19T08:27:37;50.67;45.12;65.13;;
74234;Laerm;62591;55.764;37.718;2023-05-19T08:30:07;51.46;44.99;63.84;;
74234;Laerm;62591;55.764;37.718;2023-05-19T08:32:35;51.60;44.64;65.82;;
74234;Laerm;62591;55.764;37.718;2023-05-19T08:35:04;52.31;45.10;62.40;;
74234;Laerm;62591;55.764;37.718;2023-05-19T08:37:33;50.11;44.37;59.91;;
74234;Laerm;62591;55.764;37.718;2023-05-19T08:40:04;50.59;45.89;63.22;;
74234;Laerm;62591;55.764;37.718;2023-05-19T08:42:36;50.72;43.12;70.27;;
74234;Laerm;62591;55.764;37.718;2023-05-19T08:45:06;51.35;44.59;59.91;;
74234;Laerm;62591;55.764;37.718;2023-05-19T08:47:35;51.40;43.80;74.20;;
74234;Laerm;62591;55.764;37.718;2023-05-19T08:50:05;50.62;44.37;61.36;;
74234;Laerm;62591;55.764;37.718;2023-05-19T08:52:41;49.34;41.83;62.18;;
74234;Laerm;62591;55.764;37.718;2023-05-19T08:55:40;49.91;43.40;59.18;;
74234;Laerm;62591;55.764;37.718;2023-05-19T08:58:13;48.16;42.76;55.92;;
74234;Laerm;62591;55.764;37.718;2023-05-19T09:00:46;50.10;43.79;56.29;;
74234;Laerm;62591;55.764;37.718;2023-05-19T09:03:17;48.93;42.90;56.17;;
74234;Laerm;62591;55.764;37.718;2023-05-19T09:05:50;48.39;41.92;54.85;;
74234;Laerm;62591;55.764;37.718;2023-05-19T09:08:19;48.22;41.55;54.52;;
74234;Laerm;62591;55.764;37.718;2023-05-19T09:10:48;48.49;41.47;57.98;;
74234;Laerm;62591;55.764;37.718;2023-05-19T09:13:18;50.01;44.00;59.20;;
74234;Laerm;62591;55.764;37.718;2023-05-19T09:15:47;48.55;43.79;58.30;;
74234;Laerm;62591;55.764;37.718;2023-05-19T09:18:17;48.76;42.67;57.12;;
74234;Laerm;62591;55.764;37.718;2023-05-19T09:20:46;49.52;44.20;62.20;;
74234;Laerm;62591;55.764;37.718;2023-05-19T09:23:16;49.37;43.57;57.46;;
74234;Laerm;62591;55.764;37.718;2023-05-19T09:25:48;50.51;44.50;73.60;;
74234;Laerm;62591;55.764;37.718;2023-05-19T09:28:29;49.43;43.15;64.82;;
74234;Laerm;62591;55.764;37.718;2023-05-19T09:31:00;49.88;43.26;61.85;;
74234;Laerm;62591;55.764;37.718;2023-05-19T09:33:29;48.15;42.22;57.52;;
74234;Laerm;62591;55.764;37.718;2023-05-19T09:35:59;48.95;42.55;55.67;;
74234;Laerm;62591;55.764;37.718;2023-05-19T09:38:29;48.89;42.61;56.69;;
74234;Laerm;62591;55.764;37.718;2023-05-19T09:40:59;48.05;42.60;54.13;;
74234;Laerm;62591;55.764;37.718;2023-05-19T09:43:29;48.33;43.26;54.33;;
74234;Laerm;62591;55.764;37.718;2023-05-19T09:46:01;48.33;43.41;58.15;;
74234;Laerm;62591;55.764;37.718;2023-05-19T09:48:31;47.46;41.15;56.99;;
74234;Laerm;62591;55.764;37.718;2023-05-19T09:51:01;48.62;42.18;61.44;;
74234;Laerm;62591;55.764;37.718;2023-05-19T09:53:29;47.09;40.74;54.93;;
74234;Laerm;62591;55.764;37.718;2023-05-19T09:56:00;47.25;42.25;58.33;;
74234;Laerm;62591;55.764;37.718;2023-05-19T09:58:32;48.39;40.99;58.63;;
74234;Laerm;62591;55.764;37.718;2023-05-19T10:01:03;48.24;42.98;60.60;;
74234;Laerm;62591;55.764;37.718;2023-05-19T10:03:32;46.50;41.07;55.02;;
74234;Laerm;62591;55.764;37.718;2023-05-19T10:06:03;47.66;41.55;53.52;;
74234;Laerm;62591;55.764;37.718;2023-05-19T10:08:33;50.03;43.75;64.45;;
74234;Laerm;62591;55.764;37.718;2023-05-19T10:11:02;51.37;42.64;67.44;;
74234;Laerm;62591;55.764;37.718;2023-05-19T10:13:34;49.39;43.64;63.76;;
74234;Laerm;62591;55.764;37.718;2023-05-19T10:16:05;50.93;42.54;71.40;;
74234;Laerm;62591;55.764;37.718;2023-05-19T10:18:36;47.80;42.06;52.24;;
74234;Laerm;62591;55.764;37.718;2023-05-19T10:21:07;47.08;41.98;56.49;;
74234;Laerm;62591;55.764;37.718;2023-05-19T10:23:35;47.61;41.67;65.49;;
74234;Laerm;62591;55.764;37.718;2023-05-19T10:26:05;48.55;41.82;62.05;;
74234;Laerm;62591;55.764;37.718;2023-05-19T10:28:37;47.21;41.70;56.87;;
74234;Laerm;62591;55.764;37.718;2023-05-19T10:31:11;47.09;40.00;58.53;;
74234;Laerm;62591;55.764;37.718;2023-05-19T10:33:56;49.46;42.83;59.40;;
74234;Laerm;62591;55.764;37.718;2023-05-19T10:36:40;47.76;41.22;52.75;;
74234;Laerm;62591;55.764;37.718;2023-05-19T10:39:16;49.80;41.96;57.19;;
74234;Laerm;62591;55.764;37.718;2023-05-19T10:41:55;47.99;41.36;55.24;;
74234;Laerm;62591;55.764;37.718;2023-05-19T10:44:35;47.42;39.96;56.17;;
74234;Laerm;62591;55.764;37.718;2023-05-19T10:47:06;48.53;43.02;57.66;;
74234;Laerm;62591;55.764;37.718;2023-05-19T10:49:39;48.32;42.16;55.82;;
74234;Laerm;62591;55.764;37.718;2023-05-19T10:52:18;47.88;42.18;55.87;;
74234;Laerm;62591;55.764;37.718;2023-05-19T10:54:47;49.04;41.07;56.91;;
74234;Laerm;62591;55.764;37.718;2023-05-19T10:57:16;50.75;43.94;60.37;;
74234;Laerm;62591;55.764;37.718;2023-05-19T10:59:46;50.13;43.63;60.05;;
74234;Laerm;62591;55.764;37.718;2023-05-19T11:02:38;50.27;42.56;65.49;;
74234;Laerm;62591;55.764;37.718;2023-05-19T11:05:09;49.56;42.14;62.68;;
74234;Laerm;62591;55.764;37.718;2023-05-19T11:07:40;48.78;43.11;53.94;;
74234;Laerm;62591;55.764;37.718;2023-05-19T11:10:11;49.74;43.83;62.18;;
74234;Laerm;62591;55.764;37.718;2023-05-19T11:12:41;48.87;44.39;56.05;;
74234;Laerm;62591;55.764;37.718;2023-05-19T11:15:15;48.26;42.14;54.58;;
74234;Laerm;62591;55.764;37.718;2023-05-19T11:17:46;46.94;41.94;52.29;;
74234;Laerm;62591;55.764;37.718;2023-05-19T11:20:22;48.07;42.35;55.68;;
74234;Laerm;62591;55.764;37.718;2023-05-19T11:23:03;48.17;41.74;62.18;;
74234;Laerm;62591;55.764;37.718;2023-05-19T11:25:44;47.58;42.05;55.31;;
74234;Laerm;62591;55.764;37.718;2023-05-19T11:28:18;49.29;44.04;64.63;;
74234;Laerm;62591;55.764;37.718;2023-05-19T11:30:48;50.40;43.00;62.40;;
74234;Laerm;62591;55.764;37.718;2023-05-19T11:33:19;64.57;45.11;78.44;;
74234;Laerm;62591;55.764;37.718;2023-05-19T11:35:54;49.69;43.01;60.94;;
74234;Laerm;62591;55.764;37.718;2023-05-19T11:38:27;51.88;43.66;67.05;;
74234;Laerm;62591;55.764;37.718;2023-05-19T11:40:56;50.00;43.19;60.99;;
74234;Laerm;62591;55.764;37.718;2023-05-19T11:43:25;48.73;42.30;59.82;;
74234;Laerm;62591;55.764;37.718;2023-05-19T11:45:55;49.90;42.91;60.38;;
74234;Laerm;62591;55.764;37.718;2023-05-19T11:48:25;50.39;42.17;58.63;;
74234;Laerm;62591;55.764;37.718;2023-05-19T11:50:53;51.80;42.89;63.89;;
74234;Laerm;62591;55.764;37.718;2023-05-19T11:53:22;48.55;43.01;53.79;;
74234;Laerm;62591;55.764;37.718;2023-05-19T11:55:51;47.85;41.55;57.07;;
74234;Laerm;62591;55.764;37.718;2023-05-19T11:58:24;49.57;42.39;56.86;;
74234;Laerm;62591;55.764;37.718;2023-05-19T12:00:55;49.41;40.53;59.82;;
74234;Laerm;62591;55.764;37.718;2023-05-19T12:03:24;48.31;41.89;58.16;;
74234;Laerm;62591;55.764;37.718;2023-05-19T12:05:55;49.02;41.27;72.91;;
74234;Laerm;62591;55.764;37.718;2023-05-19T12:08:24;50.21;43.13;60.86;;
74234;Laerm;62591;55.764;37.718;2023-05-19T12:10:53;49.48;43.05;56.47;;
74234;Laerm;62591;55.764;37.718;2023-05-19T12:13:22;49.36;44.08;56.28;;
74234;Laerm;62591;55.764;37.718;2023-05-19T12:15:51;49.56;44.03;60.35;;
74234;Laerm;62591;55.764;37.718;2023-05-19T12:18:21;48.94;44.53;59.37;;
74234;Laerm;62591;55.764;37.718;2023-05-19T12:20:50;48.23;41.83;64.71;;
74234;Laerm;62591;55.764;37.718;2023-05-19T12:23:19;48.16;42.21;54.72;;
74234;Laerm;62591;55.764;37.718;2023-05-19T12:25:48;49.50;43.14;57.86;;
74234;Laerm;62591;55.764;37.718;2023-05-19T12:28:18;48.79;42.08;63.55;;
74234;Laerm;62591;55.764;37.718;2023-05-19T12:30:48;49.11;41.70;68.82;;
74234;Laerm;62591;55.764;37.718;2023-05-19T12:33:18;49.93;43.92;56.91;;
74234;Laerm;62591;55.764;37.718;2023-05-19T12:35:50;50.38;42.82;57.75;;
74234;Laerm;62591;55.764;37.718;2023-05-19T12:38:18;48.92;43.09;57.81;;
74234;Laerm;62591;55.764;37.718;2023-05-19T12:40:48;48.76;42.88;59.42;;
74234;Laerm;62591;55.764;37.718;2023-05-19T12:43:20;48.80;44.55;52.76;;
74234;Laerm;62591;55.764;37.718;2023-05-19T12:45:49;48.86;43.33;54.64;;
74234;Laerm;62591;55.764;37.718;2023-05-19T12:48:21;48.33;43.64;61.57;;
74234;Laerm;62591;55.764;37.718;2023-05-19T12:50:52;50.29;43.99;58.52;;
74234;Laerm;62591;55.764;37.718;2023-05-19T12:53:24;49.64;44.29;55.74;;
74234;Laerm;62591;55.764;37.718;2023-05-19T12:55:53;48.41;42.13;61.38;;
74234;Laerm;62591;55.764;37.718;2023-05-19T12:58:22;47.54;42.67;58.02;;
74234;Laerm;62591;55.764;37.718;2023-05-19T13:00:57;50.39;44.33;70.65;;
74234;Laerm;62591;55.764;37.718;2023-05-19T13:03:26;47.98;41.42;60.04;;
74234;Laerm;62591;55.764;37.718;2023-05-19T13:05:56;48.77;42.09;55.55;;
74234;Laerm;62591;55.764;37.718;2023-05-19T13:08:26;50.74;43.45;68.97;;
74234;Laerm;62591;55.764;37.718;2023-05-19T13:10:55;49.00;43.24;55.93;;
74234;Laerm;62591;55.764;37.718;2023-05-19T13:13:24;48.57;42.25;55.06;;
74234;Laerm;62591;55.764;37.718;2023-05-19T13:15:52;48.94;42.38;57.38;;
74234;Laerm;62591;55.764;37.718;2023-05-19T13:18:21;48.33;41.74;56.63;;
74234;Laerm;62591;55.764;37.718;2023-05-19T13:20:50;48.91;43.57;62.22;;
74234;Laerm;62591;55.764;37.718;2023-05-19T13:23:21;49.45;43.84;58.92;;
74234;Laerm;62591;55.764;37.718;2023-05-19T13:25:50;49.73;44.07;61.24;;
74234;Laerm;62591;55.764;37.718;2023-05-19T13:28:19;48.76;43.52;54.68;;
74234;Laerm;62591;55.764;37.718;2023-05-19T13:30:47;50.31;43.59;70.40;;
74234;Laerm;62591;55.764;37.718;2023-05-19T13:33:17;50.36;41.72;59.73;;
74234;Laerm;62591;55.764;37.718;2023-05-19T13:35:45;49.16;42.55;71.56;;
74234;Laerm;62591;55.764;37.718;2023-05-19T13:38:15;51.96;44.92;61.89;;
74234;Laerm;62591;55.764;37.718;2023-05-19T13:40:45;51.44;42.33;58.87;;
74234;Laerm;62591;55.764;37.718;2023-05-19T13:43:13;50.75;44.26;56.45;;
74234;Laerm;62591;55.764;37.718;2023-05-19T13:45:42;49.71;42.89;59.37;;
74234;Laerm;62591;55.764;37.718;2023-05-19T13:48:11;49.09;42.80;56.73;;
74234;Laerm;62591;55.764;37.718;2023-05-19T13:50:40;48.37;42.41;58.42;;
74234;Laerm;62591;55.764;37.718;2023-05-19T13:53:08;49.42;43.07;58.52;;